• Join FlightAware (Why Join?)
  • Login
  • US Flag 
10:09AM EST


 

Airport Tracker/Info


-or-


 

Live Flight TrackerFlight Track Log ✈ BER6418 ✈ 19-Apr-2013 ✈ EDDN / NUE - EDDT / TXL

Flight Track Log - Related Links

Times and Time Zones

All times are in EDT time to prevent confusion due to time zone crossing. See the BER6418 flight status page for this flight to view local times or setup timezone preferences in your user account.

Time Position Orientation Groundspeed Altitude Reporting Facility
EDT Latitude Longitude Course Direction KTS MPH feet Rate Location/Type
02:48PM 50.5214 11.7811 24° Northeast  Level Estimated
02:49PM 50.5999 11.8364 24° Northeast  Level Estimated
02:50PM 50.6783 11.8919 24° Northeast  Level Estimated
02:51PM 50.7568 11.9476 24° Northeast  Level Estimated
02:52PM 50.8352 12.0035 24° Northeast  Level Estimated
02:53PM 50.9136 12.0596 24° Northeast  Level Estimated
02:54PM 50.9919 12.1159 24° Northeast  Level Estimated
02:55PM 51.0703 12.1723 24° Northeast  Level Estimated
02:56PM 51.1486 12.2290 24° Northeast  Level Estimated
02:57PM 51.2269 12.2858 24° Northeast  Level Estimated
02:58PM 51.3051 12.3428 24° Northeast  Level Estimated
02:59PM 51.3833 12.4001 25° Northeast  Level Estimated
03:00PM 51.4615 12.4575 25° Northeast  Level Estimated
03:01PM 51.5397 12.5151 25° Northeast  Level Estimated
03:02PM 51.6178 12.5730 25° Northeast  Level Estimated
03:03PM 51.6959 12.6310 25° Northeast  Level Estimated
03:04PM 51.7740 12.6892 25° Northeast  Level Estimated
03:05PM 51.8521 12.7476 25° Northeast  Level Estimated
03:06PM 51.9301 12.8062 25° Northeast  Level Estimated
03:07PM 52.0081 12.8651 25° Northeast  Level Estimated
03:08PM 52.0861 12.9241 25° Northeast  Level Estimated
03:09PM 52.1640 12.9833 25° Northeast  Level Estimated
03:10PM 52.2419 13.0428 25° Northeast  Level Estimated
03:11PM 52.3198 13.1025 25° Northeast  Level Estimated
03:12PM 52.3976 13.1623 25° Northeast  Level Estimated
03:13PM 52.4754 13.2224 25° Northeast  Level Estimated
03:14PM 52.5532 13.2827 25° Northeast  Level Estimated
03:15PM 52.5597 13.2877 25° Northeast  Level Estimated
03:16PM 52.5597 13.2877 171° South  Level Estimated
03:17PM 52.5597 13.2877 171° South  Level Estimated
03:18PM 52.5597 13.2877 171° South  Level Estimated
03:19PM 52.5597 13.2877 171° South  Level Estimated
03:20PM 52.5597 13.2877 171° South  Level Estimated
03:21PM 52.5597 13.2877 171° South  Level Estimated
03:22PM 52.5597 13.2877 171° South  Level Estimated
03:23PM 52.5597 13.2877 171° South  Level Estimated
03:24PM 52.5597 13.2877 171° South  Level Estimated
03:25PM 52.5597 13.2877 171° South  Level Estimated